Surface observations / Quebec / CYHU

Quebec | Canada | USA | France | UK | Europe | Elsewhere

Display: Info & Location for CYHU | Help decoding METAR

YHU SAINT-HUBERT ARPT QB CN
Raw surface observations for station CYHU
CYHU 220400Z AUTO 24012KT 9SM BKN120 OVC140 19/15 A2948 RMK SLP983 DENSITY ALT 1000FT=
CYHU 220300Z AUTO 22010G15KT 9SM OVC110 19/14 A2949 RMK SLP986 DENSITY ALT 1000FT=
CYHU 220200Z AUTO 21004KT 9SM OVC110 19/15 A2950 RMK SLP990 DENSITY ALT 1000FT=
CYHU 220100Z AUTO 19006KT 9SM SCT070 BKN082 BKN100 OVC120 19/15 A2951 RMK SLP993 DENSITY ALT 1000FT=
CYHU 220024Z AUTO 22011KT 9SM -RA BKN095 OVC120 21/15 A2952 RMK SLP996 DENSITY ALT 1200FT=
CYHU 220013Z AUTO 21011G18KT 9SM FEW075 OVC096 21/16 A2952 RMK SLP995 DENSITY ALT 1200FT=
CYHU 220000Z AUTO 22014G24KT 9SM -RA SCT075 OVC095 21/16 A2951 RMK SLP994 DENSITY ALT 1200FT=
CYHU 212350Z AUTO 21012G21KT 9SM -RA BKN075 OVC098 21/16 A2951 RMK SLP994 DENSITY ALT 1200FT=
CYHU 212300Z AUTO 22005KT 9SM SCT060 BKN079 BKN094 21/16 A2951 RMK SLP994 DENSITY ALT 1200FT=
CYHU 212200Z AUTO 18008KT 9SM FEW075 BKN110 22/16 A2952 RMK SLP996 DENSITY ALT 1300FT=
CYHU 212100Z AUTO 17009KT 9SM BKN050 BKN070 OVC100 21/17 A2953 RMK SLP001 DENSITY ALT 1200FT=
CYHU 212041Z AUTO 17010KT 9SM OVC050 20/17 A2954 RMK SLP002 DENSITY ALT 1100FT=
CYHU 212006Z AUTO 18010KT 9SM -RA OVC050 20/17 A2955 RMK SLP005 DENSITY ALT 1100FT=
CYHU 212002Z AUTO 17010G15KT 9SM BKN050 OVC065 20/16 A2955 RMK SLP005 DENSITY ALT 1100FT=
CYHU 212000Z AUTO 18011G16KT 9SM -RA BKN055 OVC071 20/16 A2955 RMK PCPN 0.5MM PAST HR SLP005 DENSITY ALT 1100FT=
CYHU 211902Z AUTO 17013G20KT 9SM -RA BKN080 OVC120 21/16 A2956 RMK SLP009 DENSITY ALT 1100FT=
CYHU 211900Z AUTO 17014G20KT 9SM SCT080 BKN094 OVC120 21/16 A2956 RMK PRESFR SLP009 DENSITY ALT 1100FT=
CYHU 211851Z AUTO 17013G21KT 9SM FEW050 BKN100 OVC120 21/16 A2956 RMK PRESFR SLP010 DENSITY ALT 1100FT=
CYHU 211819Z AUTO 17012G23KT 9SM -RA FEW050 OVC120 21/15 A2959 RMK PRESFR SLP018 DENSITY ALT 1200FT=
CYHU 211800Z AUTO 17017G22KT 9SM FEW042 BKN130 22/15 A2959 RMK PRESFR SLP019 DENSITY ALT 1200FT=
CYHU 211700Z AUTO 17012KT 9SM BKN050 OVC130 22/15 A2963 RMK PRESFR SLP034 DENSITY ALT 1200FT=
CYHU 211600Z AUTO 17009KT 9SM BKN110 21/15 A2966 RMK SLP044 DENSITY ALT 1100FT=
CYHU 211529Z AUTO 17013KT 9SM SCT035 BKN080 BKN110 BKN130 20/16 A2968 RMK SLP050 DENSITY ALT 900FT=
CYHU 211446Z AUTO 18014G20KT 9SM -RA BKN100 BKN120 19/14 A2970 RMK SLP056 DENSITY ALT 700FT=
CYHU 211400Z AUTO 18011G20KT 9SM OVC038 19/14 A2971 RMK SLP060 DENSITY ALT 700FT=
CYHU 211315Z AUTO 17015G22KT 9SM SCT036 BKN055 OVC076 18/14 A2971 RMK SLP061 DENSITY ALT 600FT=
CYHU 211200Z AUTO 18015G20KT 9SM BKN040 BKN230 17/13 A2970 RMK SLP058 DENSITY ALT 600FT=
CYHU 211100Z AUTO 18015G23KT 9SM CLR 17/13 A2970 RMK SLP056 DENSITY ALT 600FT=
CYHU 211000Z AUTO 17016G22KT 9SM BKN045 17/13 A2970 RMK SLP057 DENSITY ALT 600FT=
CYHU 210900Z AUTO 18014G26KT 9SM BKN046 OVC070 18/13 A2971 RMK SLP059 DENSITY ALT 600FT=
CYHU 210800Z AUTO 18015G21KT 9SM CLR 18/13 A2972 RMK SLP065 DENSITY ALT 600FT=
CYHU 210700Z AUTO 18013G19KT 9SM SCT050 BKN055 OVC074 18/14 A2975 RMK SLP074 DENSITY ALT 600FT=
CYHU 210600Z AUTO 18016G22KT 9SM FEW060 BKN074 18/14 A2979 RMK SLP088 DENSITY ALT 500FT=
CYHU 210500Z AUTO 18012G20KT 9SM FEW070 SCT100 18/13 A2982 RMK SLP097 DENSITY ALT 500FT=
CYHU 210400Z AUTO 18012G17KT 9SM SCT046 BKN055 OVC072 18/13 A2984 RMK SLP104 DENSITY ALT 500FT=